createdAt,value
2018-07-21T09:47:33.584Z,22.90
2018-07-21T09:50:03.968Z,22.90
2018-07-21T09:52:35.151Z,23.00
2018-07-21T09:55:05.894Z,23.00
2018-07-21T09:57:36.709Z,23.10
2018-07-21T10:00:10.252Z,23.10
2018-07-21T10:02:49.269Z,23.20
2018-07-21T10:05:19.792Z,23.30
2018-07-21T10:07:55.247Z,23.40
2018-07-21T10:12:55.554Z,23.60
2018-07-21T10:15:26.338Z,23.70
2018-07-21T10:17:56.533Z,23.90
2018-07-21T10:20:28.861Z,24.00
2018-07-21T10:22:59.898Z,24.10
2018-07-21T10:25:38.811Z,24.20
2018-07-21T10:28:21.251Z,24.40
2018-07-21T10:30:52.654Z,24.50
2018-07-21T10:33:23.550Z,24.60
2018-07-21T10:38:25.698Z,24.90
2018-07-21T10:40:57.805Z,25.00
2018-07-21T10:43:30.157Z,25.20
2018-07-21T10:46:00.356Z,25.30
2018-07-21T10:48:30.672Z,25.40
2018-07-21T10:51:00.957Z,25.50
2018-07-21T10:53:32.873Z,25.60
2018-07-21T10:56:04.246Z,25.70
2018-07-21T10:58:36.119Z,25.80
2018-07-21T11:01:06.403Z,25.90
2018-07-21T11:03:37.420Z,26.00
2018-07-21T11:06:08.217Z,26.10
2018-07-21T11:08:43.554Z,26.10
2018-07-21T11:11:13.738Z,26.20
2018-07-21T11:13:45.848Z,26.30
2018-07-21T11:16:16.029Z,26.40
2018-07-21T11:18:47.805Z,26.50
2018-07-21T11:21:18.250Z,26.60
2018-07-21T11:23:49.087Z,26.70
2018-07-21T11:26:19.405Z,26.80
2018-07-21T11:28:49.998Z,26.90
2018-07-21T11:31:20.253Z,27.00
2018-07-21T11:36:20.544Z,27.10
2018-07-21T11:38:52.572Z,27.20
2018-07-21T11:41:23.067Z,27.30
2018-07-21T11:43:55.674Z,27.30
2018-07-21T11:46:26.098Z,27.30
2018-07-21T11:51:28.069Z,27.40
2018-07-21T11:56:29.424Z,27.60
2018-07-21T11:59:00.295Z,27.60
2018-07-21T12:01:30.156Z,27.70
2018-07-21T12:04:01.510Z,27.70
2018-07-21T12:06:31.780Z,27.70
2018-07-21T12:09:03.215Z,27.80
2018-07-21T12:11:33.394Z,27.80
2018-07-21T12:14:04.162Z,27.90
2018-07-21T12:16:34.929Z,28.00
2018-07-21T12:19:07.387Z,28.00
2018-07-21T12:21:38.078Z,28.10
2018-07-21T12:24:10.199Z,28.10
2018-07-21T12:26:41.440Z,28.20
2018-07-21T12:29:13.193Z,28.20
2018-07-21T12:31:54.428Z,28.30
2018-07-21T12:34:26.231Z,28.30
2018-07-21T12:36:56.993Z,28.30
2018-07-21T12:39:28.378Z,28.40
2018-07-21T12:41:58.604Z,28.40
2018-07-21T12:44:29.402Z,28.50
2018-07-21T12:47:00.861Z,28.50
2018-07-21T12:49:38.248Z,28.50
2018-07-21T12:52:08.523Z,28.60
2018-07-21T12:54:39.238Z,28.60
2018-07-21T13:02:10.535Z,28.70
2018-07-21T13:04:42.276Z,28.70
2018-07-21T13:12:17.453Z,28.90
2018-07-21T13:14:47.957Z,28.90
2018-07-21T13:17:18.720Z,28.90
2018-07-21T13:19:49.930Z,28.90
2018-07-21T13:22:20.457Z,29.00
2018-07-21T13:24:52.005Z,28.90
2018-07-21T13:27:22.326Z,29.00
2018-07-21T13:29:52.962Z,29.00
2018-07-21T13:32:23.581Z,29.00
2018-07-21T13:35:01.847Z,29.00
2018-07-21T13:37:32.137Z,29.00
2018-07-21T13:40:12.451Z,29.00
2018-07-21T13:42:43.002Z,29.00
2018-07-21T13:45:14.634Z,29.10
2018-07-21T13:50:18.183Z,29.00
2018-07-21T13:52:48.278Z,29.00
2018-07-21T13:55:18.832Z,29.00
2018-07-21T13:57:53.148Z,29.00
2018-07-21T14:00:28.490Z,29.00
2018-07-21T14:02:59.344Z,28.90
2018-07-21T14:08:01.247Z,28.90
2018-07-21T14:10:32.397Z,29.00
2018-07-21T14:13:03.877Z,29.00
2018-07-21T14:15:34.866Z,29.00
2018-07-21T14:18:04.964Z,29.00
2018-07-21T14:20:35.241Z,28.90
2018-07-21T14:23:06.683Z,28.90
2018-07-21T14:25:37.585Z,28.80
2018-07-21T14:28:09.109Z,28.80
2018-07-21T14:30:49.063Z,28.70
2018-07-21T14:33:19.399Z,28.70
2018-07-21T14:40:52.747Z,28.70
2018-07-21T14:43:23.390Z,28.70
2018-07-21T14:45:54.311Z,28.70
2018-07-21T14:48:25.936Z,28.70
2018-07-21T14:50:59.667Z,28.70
2018-07-21T14:53:32.197Z,28.70
2018-07-21T14:56:02.591Z,28.70
2018-07-21T14:58:33.658Z,28.70
2018-07-21T15:01:04.312Z,28.60
2018-07-21T15:03:35.612Z,28.60
2018-07-21T15:06:06.316Z,28.60
2018-07-21T15:11:06.575Z,28.60
2018-07-21T15:13:36.878Z,28.60
2018-07-21T15:18:39.603Z,28.60
2018-07-21T15:23:40.844Z,28.50
2018-07-21T15:26:10.985Z,28.40
2018-07-21T15:31:10.820Z,28.40
2018-07-21T15:33:41.254Z,28.40
2018-07-21T15:36:11.872Z,28.40
2018-07-21T15:38:41.773Z,28.40
2018-07-21T15:41:13.749Z,28.30
2018-07-21T15:43:44.332Z,28.30
2018-07-21T15:46:14.726Z,28.20
2018-07-21T15:48:44.916Z,28.20
2018-07-21T15:51:16.396Z,28.20
2018-07-21T15:53:46.318Z,28.20
2018-07-21T15:56:16.533Z,28.20
2018-07-21T15:58:46.548Z,28.10
2018-07-21T16:01:16.482Z,28.00
2018-07-21T16:03:47.467Z,28.00
2018-07-21T16:06:17.691Z,28.00
2018-07-21T16:08:47.799Z,27.90
2018-07-21T16:11:18.129Z,27.90
2018-07-21T16:13:49.171Z,27.90
2018-07-21T16:16:19.144Z,27.80
2018-07-21T16:18:49.972Z,27.80
2018-07-21T16:21:20.159Z,27.80
2018-07-21T16:23:50.530Z,27.70
2018-07-21T16:26:35.614Z,27.70
2018-07-21T16:29:30.847Z,27.70
2018-07-21T16:32:27.124Z,27.60
2018-07-21T16:34:59.879Z,27.60
2018-07-21T16:37:31.141Z,27.60
2018-07-21T16:40:02.867Z,27.60
2018-07-21T16:42:32.978Z,27.50
2018-07-21T16:45:04.608Z,27.50
2018-07-21T16:47:35.499Z,27.50
2018-07-21T16:50:05.952Z,27.40
2018-07-21T16:52:37.202Z,27.40
2018-07-21T16:55:07.443Z,27.40
2018-07-21T16:57:38.497Z,27.40
2018-07-21T17:00:09.303Z,27.30
2018-07-21T17:05:09.178Z,27.30
2018-07-21T17:07:39.428Z,27.20
2018-07-21T17:10:12.185Z,27.10
2018-07-21T17:12:54.160Z,27.10
2018-07-21T17:15:25.545Z,27.10
2018-07-21T17:17:56.156Z,27.00
2018-07-21T17:20:30.924Z,27.00
2018-07-21T17:23:05.733Z,26.90
2018-07-21T17:28:17.872Z,26.70
2018-07-21T17:31:05.772Z,26.60
2018-07-21T17:36:10.504Z,26.40
2018-07-21T17:38:40.933Z,26.30
2018-07-21T17:41:12.529Z,26.30
2018-07-21T17:43:42.603Z,26.20
2018-07-21T17:46:13.886Z,26.10
2018-07-21T17:48:44.198Z,26.00
2018-07-21T17:51:16.700Z,25.90
2018-07-21T17:53:49.635Z,25.90
2018-07-21T17:56:20.441Z,25.80
2018-07-21T17:58:50.872Z,25.70
2018-07-21T18:01:21.998Z,25.70
2018-07-21T18:03:52.301Z,25.60
2018-07-21T18:06:30.287Z,25.60
2018-07-21T18:09:03.883Z,25.50
2018-07-21T18:11:36.876Z,25.40
2018-07-21T18:14:06.949Z,25.30
2018-07-21T18:16:38.801Z,25.20
2018-07-21T18:19:09.556Z,25.10
2018-07-21T18:21:41.160Z,25.10
2018-07-21T18:24:11.705Z,25.00
2018-07-21T18:26:43.594Z,24.90
2018-07-21T18:29:18.545Z,24.80
2018-07-21T18:31:54.608Z,24.80
2018-07-21T18:34:25.633Z,24.70
2018-07-21T18:36:56.095Z,24.60
2018-07-21T18:39:28.204Z,24.60
2018-07-21T18:41:59.434Z,24.60
2018-07-21T18:47:01.502Z,24.50
2018-07-21T18:49:31.789Z,24.50
2018-07-21T18:52:01.900Z,24.40
2018-07-21T18:54:32.422Z,24.40
2018-07-21T18:57:03.032Z,24.40
2018-07-21T18:59:42.238Z,24.30
2018-07-21T19:02:12.332Z,24.30
2018-07-21T19:07:12.085Z,24.20
2018-07-21T19:09:43.808Z,24.20
2018-07-21T19:14:49.764Z,24.10
2018-07-21T19:17:20.116Z,24.10
2018-07-21T19:20:00.139Z,24.00
2018-07-21T19:22:30.886Z,24.00
2018-07-21T19:25:05.218Z,23.90
2018-07-21T19:27:35.714Z,23.80
2018-07-21T19:30:06.020Z,23.70
2018-07-21T19:35:11.915Z,23.70
2018-07-21T19:37:49.621Z,23.60
2018-07-21T19:40:20.856Z,23.60
2018-07-21T19:42:52.056Z,23.60
2018-07-21T19:45:22.402Z,23.50
2018-07-21T19:47:53.699Z,23.50
2018-07-21T19:50:24.389Z,23.40
2018-07-21T19:52:54.786Z,23.40
2018-07-21T19:55:25.163Z,23.30
2018-07-21T19:57:57.156Z,23.30
2018-07-21T20:00:27.451Z,23.20
2018-07-21T20:03:00.418Z,23.20
2018-07-21T20:05:33.044Z,23.20
2018-07-21T20:08:03.916Z,23.10
2018-07-21T20:13:04.327Z,23.00
2018-07-21T20:15:34.947Z,23.10
2018-07-21T20:18:04.907Z,23.00
2018-07-21T20:20:34.972Z,23.00
2018-07-21T20:23:05.930Z,23.00
2018-07-21T20:25:40.879Z,23.00
2018-07-21T20:30:24.242Z,23.00
2018-07-21T20:32:55.106Z,22.90
2018-07-21T20:35:25.520Z,22.80
2018-07-21T20:37:56.134Z,22.80
2018-07-21T20:42:56.676Z,22.60
2018-07-21T20:45:27.595Z,22.60
2018-07-21T20:47:59.643Z,22.50
2018-07-21T20:50:46.587Z,22.50
2018-07-21T20:53:20.564Z,22.50
2018-07-21T20:55:51.178Z,22.40
2018-07-21T20:58:23.175Z,22.30
2018-07-21T21:03:29.308Z,22.20
2018-07-21T21:06:01.764Z,22.20
2018-07-21T21:08:32.796Z,22.20
2018-07-21T21:11:07.245Z,22.10
2018-07-21T21:13:38.142Z,22.00
2018-07-21T21:16:09.483Z,22.00
2018-07-21T21:18:41.557Z,21.90
2018-07-21T21:21:12.683Z,21.90
2018-07-21T21:28:44.368Z,21.80
2018-07-21T21:33:49.054Z,21.70
2018-07-21T21:36:19.946Z,21.60
2018-07-21T21:38:52.726Z,21.60
2018-07-21T21:41:23.268Z,21.50
2018-07-21T21:43:55.489Z,21.50
2018-07-21T21:46:26.180Z,21.50
2018-07-21T21:48:57.795Z,21.40
2018-07-21T21:51:29.276Z,21.40
2018-07-21T21:54:00.567Z,21.30
2018-07-21T21:56:31.496Z,21.30
2018-07-21T21:59:03.811Z,21.30
2018-07-21T22:01:38.582Z,21.20
2018-07-21T22:04:12.200Z,21.20
2018-07-21T22:06:42.820Z,21.20
2018-07-21T22:09:14.386Z,21.20
2018-07-21T22:11:44.939Z,21.20
2018-07-21T22:14:16.462Z,21.10
2018-07-21T22:16:46.906Z,21.10
2018-07-21T22:19:18.355Z,21.10
2018-07-21T22:21:49.247Z,21.00
2018-07-21T22:24:20.634Z,21.00
2018-07-21T22:26:51.580Z,20.90
2018-07-21T22:29:26.380Z,20.90
2018-07-21T22:31:56.999Z,20.90
2018-07-21T22:34:28.151Z,20.80
2018-07-21T22:36:58.925Z,20.80
2018-07-21T22:39:29.900Z,20.70
2018-07-21T22:42:00.440Z,20.70
2018-07-21T22:44:31.443Z,20.70
2018-07-21T22:47:01.802Z,20.60
2018-07-21T22:49:33.495Z,20.60
2018-07-21T22:52:04.341Z,20.50
2018-07-21T22:57:36.239Z,20.50
2018-07-21T23:00:08.006Z,20.50
2018-07-21T23:02:38.992Z,20.40
2018-07-21T23:05:10.212Z,20.40
2018-07-21T23:07:41.024Z,20.40
2018-07-21T23:10:12.420Z,20.40
2018-07-21T23:12:43.622Z,20.30
2018-07-21T23:17:45.547Z,20.30
2018-07-21T23:20:17.137Z,20.20
2018-07-21T23:22:47.761Z,20.20
2018-07-21T23:25:18.930Z,20.20
2018-07-21T23:27:49.075Z,20.10
2018-07-21T23:30:20.541Z,20.10
2018-07-21T23:32:50.981Z,20.10
2018-07-21T23:35:22.116Z,20.10
2018-07-21T23:37:52.590Z,20.00
2018-07-21T23:40:23.256Z,20.00
2018-07-21T23:42:53.469Z,20.00
2018-07-21T23:45:25.720Z,19.90
2018-07-21T23:47:56.237Z,19.90
2018-07-21T23:50:27.368Z,19.80
2018-07-21T23:52:58.231Z,19.80
2018-07-21T23:55:29.525Z,19.70
2018-07-21T23:58:00.313Z,19.70
